Brilliance Of The Seas — C6SJ5 — position and weather

sailwx.info

Track history (hours):
 
Tides and Currents Weather Stations Pressure Air Temp Water Temp Dewpoint Dewpoint Depression Visibility Wind Speed Wind Dir Waves Ship Positions

Brilliance Of The Seas

Operator: Royal Caribbean Cruises Ltd

Last reported at 2017-Aug-24 06:55 UTC. Time now 2017-Aug-24 06:59 UTC.
Position N 37°28' E 025°19'.

Type: Ship. MMSI: 311361000.

Date/timePositionNaut miles runAvg speedWind from/ knotsBaromVisibWave heightAir tempDewpointWater temp
2017-Aug-24 06:55N 37°28' E 025°19'0 0.0
2017-Aug-24 06:25N 37°28' E 025°19'0 0.0
2017-Aug-24 05:58N 37°28' E 025°19'0 0.0
2017-Aug-24 05:28N 37°28' E 025°19'4 8.5
2017-Aug-24 05:00N 37°24' E 025°18'4194.4 360 / 191017.0 24.0 23.0
2017-Aug-24 04:58N 37°28' E 025°19'0 0.0
2017-Aug-24 04:25N 37°28' E 025°19'0 0.0
2017-Aug-24 04:00N 37°28' E 025°19'1 1.6
2017-Aug-24 03:30N 37°28' E 025°18'4 7.8
2017-Aug-24 03:00N 37°29' E 025°14'4 7.9
2017-Aug-24 02:30N 37°30' E 025°09'5 9.0
2017-Aug-24 02:00N 37°31' E 025°03'5 9.2
2017-Aug-24 01:30N 37°32' E 024°58'5 9.2
2017-Aug-24 00:55N 37°33' E 024°51'4 9.1
2017-Aug-24 00:30N 37°33' E 024°46'48 8.8
2017-Aug-23 19:00N 37°18' E 023°48'2012.3 050 / 151017.0 25.023.626.0
2017-Aug-23 17:19N 37°38' E 023°43'3 9.6
2017-Aug-23 17:00N 37°41' E 023°42'5 9.5
2017-Aug-23 16:30N 37°45' E 023°39'5 9.6
2017-Aug-23 16:00N 37°50' E 023°36'5 9.5
2017-Aug-23 15:30N 37°54' E 023°36'2 4.2
2017-Aug-23 15:00N 37°56' E 023°37'0 0.0
2017-Aug-23 14:30N 37°56' E 023°37'0 0.0
2017-Aug-23 13:30N 37°56' E 023°37'0 0.0
2017-Aug-23 13:00N 37°56' E 023°37'0 0.0
2017-Aug-23 12:30N 37°56' E 023°37'0 0.0
2017-Aug-23 12:00N 37°56' E 023°37'0 0.0
2017-Aug-23 11:30N 37°56' E 023°37'0 0.0
2017-Aug-23 11:00N 37°56' E 023°37'0 0.0
2017-Aug-23 10:30N 37°56' E 023°37'0 0.0
2017-Aug-23 09:57N 37°56' E 023°37'0 0.0
2017-Aug-23 09:30N 37°56' E 023°37'0 0.0
2017-Aug-23 09:00N 37°56' E 023°37'0 0.0
2017-Aug-23 08:30N 37°56' E 023°37'0 0.0
2017-Aug-23 08:00N 37°56' E 023°37'0 0.0
2017-Aug-23 07:30N 37°56' E 023°37'0 0.0
2017-Aug-23 07:00N 37°56' E 023°37'0 0.0
2017-Aug-23 06:30N 37°56' E 023°37'0 0.0
2017-Aug-23 06:00N 37°56' E 023°37'0 0.0
2017-Aug-23 05:30N 37°56' E 023°37'0 0.0
2017-Aug-23 05:00N 37°56' E 023°37'0 0.0
2017-Aug-23 04:30N 37°56' E 023°37'0 0.0
2017-Aug-23 04:00N 37°56' E 023°37'0 0.0
2017-Aug-23 03:30N 37°56' E 023°37'0 0.0
2017-Aug-23 03:00N 37°56' E 023°37'0 0.0
2017-Aug-23 02:30N 37°56' E 023°37'0 0.2
2017-Aug-23 02:01N 37°56' E 023°37'1 2.7
2017-Aug-23 01:31N 37°55' E 023°37'612.8
2017-Aug-23 01:01N 37°49' E 023°40'714.7
2017-Aug-23 00:30N 37°43' E 023°44'714.0
2017-Aug-23 00:00N 37°36' E 023°45'814.1
2017-Aug-22 23:28N 37°28' E 023°45'3614.5
2017-Aug-22 21:00N 36°54' E 023°30'24512.9 060 / 151015.0 5.4 25.023.627.0
2017-Aug-22 02:00N 37°06' E 018°24'6015.0 360 / 241015.027.0 26.0 23.0
2017-Aug-21 22:00N 37°24' E 017°12'7014.8 010 / 241015.0 5.4 27.024.328.0
2017-Aug-21 17:18N 37°48' E 015°49'413.6
2017-Aug-21 17:00N 37°49' E 015°45'713.4
2017-Aug-21 16:30N 37°53' E 015°37'713.2
2017-Aug-21 16:00N 37°58' E 015°33'714.4
2017-Aug-21 15:30N 38°05' E 015°34'714.1
2017-Aug-21 15:00N 38°12' E 015°36'611.7
2017-Aug-21 14:30N 38°17' E 015°41'714.5
2017-Aug-21 14:01N 38°24' E 015°37'814.5
2017-Aug-21 13:26N 38°31' E 015°33'714.8
2017-Aug-21 12:58N 38°37' E 015°29'814.6
2017-Aug-21 12:26N 38°44' E 015°25'814.7
2017-Aug-21 11:54N 38°51' E 015°20'18614.4
2017-Aug-20 23:00N 40°54' E 012°18'2813.8 320 / 131015.010.8 25.0 23.0
2017-Aug-20 21:00N 41°18' E 012°00'72 3.7 330 / 141015.0 5.4 25.023.626.0
2017-Aug-20 01:20N 42°02' E 010°43'5017.0
2017-Aug-19 22:25N 42°42' E 010°03'2518.4
2017-Aug-19 21:04N 43°06' E 009°57'330.4
2017-Aug-19 21:00N 43°06' E 009°54'356.6 100 / 121014.0 5.4 25.023.626.0
2017-Aug-19 20:56N 43°09' E 009°56'819.1
2017-Aug-19 20:30N 43°16' E 009°50'1019.3
2017-Aug-19 20:00N 43°25' E 009°45'1318.5
2017-Aug-19 19:17N 43°38' E 009°47'518.7
2017-Aug-19 19:00N 43°43' E 009°48'918.3
2017-Aug-19 18:30N 43°52' E 009°50'917.3
2017-Aug-19 18:00N 44°01' E 009°52'510.3
2017-Aug-19 17:30N 44°06' E 009°51'1 1.2
2017-Aug-19 17:00N 44°06' E 009°50'0 0.0
2017-Aug-19 16:30N 44°06' E 009°50'0 0.0
2017-Aug-19 16:00N 44°06' E 009°50'0 0.0
2017-Aug-19 15:30N 44°06' E 009°50'0 0.0
2017-Aug-19 15:00N 44°06' E 009°50'0 0.0
2017-Aug-19 14:00N 44°06' E 009°50'0 0.0
2017-Aug-19 13:30N 44°06' E 009°50'0 0.0
2017-Aug-19 12:57N 44°06' E 009°50'0 0.0
2017-Aug-19 12:30N 44°06' E 009°50'0 0.0
2017-Aug-19 12:00N 44°06' E 009°50'0 0.0
2017-Aug-19 11:24N 44°06' E 009°50'0 0.0
2017-Aug-19 10:57N 44°06' E 009°50'0 0.0
2017-Aug-19 10:30N 44°06' E 009°50'0 0.0
2017-Aug-19 10:00N 44°06' E 009°50'0 0.0
2017-Aug-19 09:30N 44°06' E 009°50'0 0.0
2017-Aug-19 09:00N 44°06' E 009°50'0 0.0
2017-Aug-19 08:30N 44°06' E 009°50'0 0.0
2017-Aug-19 08:00N 44°06' E 009°50'0 0.0
2017-Aug-19 07:30N 44°06' E 009°50'0 0.0
2017-Aug-19 07:00N 44°06' E 009°50'2120.3
2017-Aug-19 07:00N 44°06' E 009°48'2 3.4 030 / 51016.010.8 25.0 24.0
2017-Aug-19 06:30N 44°06' E 009°50'0 0.0
2017-Aug-19 06:00N 44°06' E 009°50'0 0.0
2017-Aug-19 05:30N 44°06' E 009°50'0 0.0
2017-Aug-19 05:00N 44°06' E 009°50'0 0.9
2017-Aug-19 04:30N 44°06' E 009°51'3 6.5
2017-Aug-19 04:00N 44°03' E 009°52'510.4
2017-Aug-19 03:30N 43°58' E 009°56'612.5
2017-Aug-19 03:00N 43°56' E 009°48'612.5
2017-Aug-19 02:30N 43°54' E 009°39'612.7
2017-Aug-19 02:00N 43°52' E 009°31'713.1
2017-Aug-19 01:30N 43°50' E 009°23'713.1
2017-Aug-19 01:00N 43°48' E 009°14'613.0
2017-Aug-19 00:30N 43°47' E 009°05'713.3
2017-Aug-19 00:00N 43°45' E 008°56'713.5
2017-Aug-18 23:30N 43°43' E 008°47'713.7
2017-Aug-18 23:00N 43°42' E 008°38'713.9
2017-Aug-18 22:30N 43°40' E 008°29'713.9
2017-Aug-18 22:00N 43°38' E 008°19'2171.8
2017-Aug-18 22:00N 43°36' E 008°18'611.8 200 / 171015.0 5.4 24.022.626.0
2017-Aug-18 21:30N 43°36' E 008°10'713.8
2017-Aug-18 21:00N 43°35' E 008°01'713.6
2017-Aug-18 20:30N 43°33' E 007°52'713.3
2017-Aug-18 20:00N 43°31' E 007°43'713.2
2017-Aug-18 19:29N 43°29' E 007°34'613.0
2017-Aug-18 19:00N 43°29' E 007°25'613.0
2017-Aug-18 18:30N 43°28' E 007°16'713.1
2017-Aug-18 18:00N 43°28' E 007°07'510.9
2017-Aug-18 17:31N 43°31' E 007°01'1 2.2
2017-Aug-18 16:58N 43°32' E 007°01'0 0.1
2017-Aug-18 16:28N 43°32' E 007°01'0 0.0
2017-Aug-18 15:58N 43°32' E 007°01'0 0.0
2017-Aug-18 15:28N 43°32' E 007°01'0 0.0
2017-Aug-18 14:58N 43°32' E 007°01'0 0.1
2017-Aug-18 14:28N 43°32' E 007°01'0 0.0
2017-Aug-18 13:28N 43°32' E 007°01'0 0.0
2017-Aug-18 12:58N 43°32' E 007°01'0 0.0
2017-Aug-18 12:28N 43°32' E 007°01'0 0.0
2017-Aug-18 11:58N 43°32' E 007°01'0 0.0
2017-Aug-18 11:19N 43°32' E 007°01'0 0.1
2017-Aug-18 10:58N 43°32' E 007°01'0 0.0
2017-Aug-18 10:22N 43°32' E 007°01'0 0.0
2017-Aug-18 09:52N 43°32' E 007°01'0 0.0
2017-Aug-18 09:13N 43°32' E 007°01'0 0.0
2017-Aug-18 08:52N 43°32' E 007°01'0 0.0
2017-Aug-18 08:22N 43°32' E 007°01'0 0.0
2017-Aug-18 07:52N 43°32' E 007°01'0 0.0
2017-Aug-18 07:22N 43°32' E 007°01'0 0.0
2017-Aug-18 06:52N 43°32' E 007°01'0 0.0
2017-Aug-18 06:31N 43°32' E 007°01'0 0.1
2017-Aug-18 06:00N 43°32' E 007°01'2 3.4
2017-Aug-18 05:30N 43°31' E 006°60'2818.2
2017-Aug-18 03:57N 43°06' E 006°40'918.6
2017-Aug-18 03:30N 42°60' E 006°33'1318.5
2017-Aug-18 02:48N 42°53' E 006°18'718.7
2017-Aug-18 02:24N 42°50' E 006°09'818.9
2017-Aug-18 02:01N 42°46' E 005°60'1019.2
2017-Aug-18 01:31N 42°41' E 005°48'1019.4
2017-Aug-18 01:00N 42°36' E 005°37'1019.4
2017-Aug-18 00:30N 42°32' E 005°25'1019.9
2017-Aug-18 00:00N 42°27' E 005°13'1019.6
2017-Aug-17 23:30N 42°22' E 005°02'1019.5
2017-Aug-17 23:00N 42°18' E 004°50'1019.3
2017-Aug-17 22:31N 42°13' E 004°39'1019.8
2017-Aug-17 22:00N 42°08' E 004°27'3337.1
2017-Aug-17 22:00N 42°06' E 004°24'1015.8 280 / 141019.0 5.4 24.022.624.0
2017-Aug-17 21:22N 42°02' E 004°12'10019.5
2017-Aug-17 16:14N 41°16' E 002°13'2 9.6
2017-Aug-17 15:59N 41°18' E 002°10'4 0.3
2017-Aug-17 03:48N 41°22' E 002°11'1 2.2
2017-Aug-17 03:30N 41°21' E 002°10'4 7.1
2017-Aug-17 03:00N 41°18' E 002°11'714.1
2017-Aug-17 02:30N 41°13' E 002°18'1217.7
2017-Aug-17 01:48N 41°07' E 002°33'619.1
2017-Aug-17 01:30N 41°04' E 002°39'1019.3
2017-Aug-17 01:00N 40°59' E 002°50'1019.3
2017-Aug-17 00:30N 40°54' E 003°01'918.8
2017-Aug-17 00:00N 40°50' E 003°12'918.5
2017-Aug-16 23:30N 40°45' E 003°23'4118.7
2017-Aug-16 21:19N 40°25' E 004°09'618.7
2017-Aug-16 21:00N 40°22' E 004°16'5303.3
2017-Aug-16 21:00N 40°18' E 004°12'1123.0 080 / 61020.0 5.4 26.024.627.0
2017-Aug-16 20:30N 40°18' E 004°27'918.6
2017-Aug-16 20:01N 40°13' E 004°37'2718.6
2017-Aug-16 18:33N 39°60' E 005°08'118.6
2017-Aug-16 18:30N 39°59' E 005°09'2118.5
2017-Aug-16 17:22N 39°49' E 005°33'3517.3
2017-Aug-16 15:22N 39°32' E 006°12'818.2
2017-Aug-16 14:55N 39°27' E 006°21'918.5
2017-Aug-16 14:27N 39°23' E 006°31'10618.4
2017-Aug-16 08:41N 38°36' E 008°33'918.8
2017-Aug-16 08:11N 38°36' E 008°45'618.5
2017-Aug-16 07:52N 38°36' E 008°52'718.5
2017-Aug-16 07:30N 38°36' E 009°01'1018.7
2017-Aug-16 06:59N 38°35' E 009°13'918.9
2017-Aug-16 06:29N 38°35' E 009°25'918.9
2017-Aug-16 06:00N 38°34' E 009°37'918.9
2017-Aug-16 05:31N 38°34' E 009°49'1118.8
2017-Aug-16 04:55N 38°33' E 010°03'919.2
2017-Aug-16 04:27N 38°33' E 010°15'919.0
2017-Aug-16 04:00N 38°32' E 010°26'3636.2
2017-Aug-16 03:00N 38°30' E 011°12'7115.0 030 / 191020.027.0 26.0 23.0
2017-Aug-15 22:18N 38°26' E 012°42'618.7
2017-Aug-15 22:00N 38°26' E 012°49'4915.6
2017-Aug-15 22:00N 38°24' E 012°54'611.4 030 / 111020.0 5.4 27.025.628.0
2017-Aug-15 21:30N 38°25' E 013°01'918.7
2017-Aug-15 21:00N 38°25' E 013°13'918.7
2017-Aug-15 20:30N 38°24' E 013°25'918.7
2017-Aug-15 20:00N 38°23' E 013°36'918.6
2017-Aug-15 19:30N 38°23' E 013°48'1618.6
2017-Aug-15 18:39N 38°22' E 014°09'318.8
2017-Aug-15 18:30N 38°22' E 014°12'1018.7
2017-Aug-15 17:58N 38°21' E 014°25'918.7
2017-Aug-15 17:30N 38°20' E 014°36'918.3
2017-Aug-15 17:00N 38°20' E 014°48'918.4
2017-Aug-15 16:30N 38°19' E 014°59'918.7
2017-Aug-15 16:01N 38°20' E 015°11'918.3
2017-Aug-15 15:31N 38°20' E 015°23'918.2
2017-Aug-15 15:00N 38°20' E 015°34'714.6
2017-Aug-15 14:30N 38°16' E 015°42'613.0
2017-Aug-15 14:00N 38°12' E 015°37'816.0
2017-Aug-15 13:31N 38°04' E 015°36'917.1
2017-Aug-15 13:00N 37°56' E 015°40'1219.7
2017-Aug-15 12:25N 37°51' E 015°54'22917.1
2017-Aug-14 23:00N 41°06' E 018°30'4221.0 330 / 191019.010.8 26.0 23.0
2017-Aug-14 21:00N 41°48' E 018°30'   320 / 151019.0 5.4 26.024.627.0
Track history (hours):
 
Tides and Currents Weather Stations Pressure Air Temp Water Temp Dewpoint Dewpoint Depression Visibility Wind Speed Wind Dir Waves Ship Positions

Brilliance Of The Seas

Operator: Royal Caribbean Cruises Ltd

Last reported at 2017-Aug-24 06:55 UTC. Time now 2017-Aug-24 06:59 UTC.
Position N 37°28' E 025°19'.

Type: Ship. MMSI: 311361000.

Date/timePositionNaut miles runAvg speedWind from/ knotsBaromVisibWave heightAir tempDewpointWater temp
2017-Aug-24 06:55N 37°28' E 025°19'0 0.0
2017-Aug-24 06:25N 37°28' E 025°19'0 0.0
2017-Aug-24 05:58N 37°28' E 025°19'0 0.0
2017-Aug-24 05:28N 37°28' E 025°19'4 8.5
2017-Aug-24 05:00N 37°24' E 025°18'4194.4 360 / 191017.0 24.0 23.0
2017-Aug-24 04:58N 37°28' E 025°19'0 0.0
2017-Aug-24 04:25N 37°28' E 025°19'0 0.0
2017-Aug-24 04:00N 37°28' E 025°19'1 1.6
2017-Aug-24 03:30N 37°28' E 025°18'4 7.8
2017-Aug-24 03:00N 37°29' E 025°14'4 7.9
2017-Aug-24 02:30N 37°30' E 025°09'5 9.0
2017-Aug-24 02:00N 37°31' E 025°03'5 9.2
2017-Aug-24 01:30N 37°32' E 024°58'5 9.2
2017-Aug-24 00:55N 37°33' E 024°51'4 9.1
2017-Aug-24 00:30N 37°33' E 024°46'48 8.8
2017-Aug-23 19:00N 37°18' E 023°48'2012.3 050 / 151017.0 25.023.626.0
2017-Aug-23 17:19N 37°38' E 023°43'3 9.6
2017-Aug-23 17:00N 37°41' E 023°42'5 9.5
2017-Aug-23 16:30N 37°45' E 023°39'5 9.6
2017-Aug-23 16:00N 37°50' E 023°36'5 9.5
2017-Aug-23 15:30N 37°54' E 023°36'2 4.2
2017-Aug-23 15:00N 37°56' E 023°37'0 0.0
2017-Aug-23 14:30N 37°56' E 023°37'0 0.0
2017-Aug-23 13:30N 37°56' E 023°37'0 0.0
2017-Aug-23 13:00N 37°56' E 023°37'0 0.0
2017-Aug-23 12:30N 37°56' E 023°37'0 0.0
2017-Aug-23 12:00N 37°56' E 023°37'0 0.0
2017-Aug-23 11:30N 37°56' E 023°37'0 0.0
2017-Aug-23 11:00N 37°56' E 023°37'0 0.0
2017-Aug-23 10:30N 37°56' E 023°37'0 0.0
2017-Aug-23 09:57N 37°56' E 023°37'0 0.0
2017-Aug-23 09:30N 37°56' E 023°37'0 0.0
2017-Aug-23 09:00N 37°56' E 023°37'0 0.0
2017-Aug-23 08:30N 37°56' E 023°37'0 0.0
2017-Aug-23 08:00N 37°56' E 023°37'0 0.0
2017-Aug-23 07:30N 37°56' E 023°37'0 0.0
2017-Aug-23 07:00N 37°56' E 023°37'0 0.0
2017-Aug-23 06:30N 37°56' E 023°37'0 0.0
2017-Aug-23 06:00N 37°56' E 023°37'0 0.0
2017-Aug-23 05:30N 37°56' E 023°37'0 0.0
2017-Aug-23 05:00N 37°56' E 023°37'0 0.0
2017-Aug-23 04:30N 37°56' E 023°37'0 0.0
2017-Aug-23 04:00N 37°56' E 023°37'0 0.0
2017-Aug-23 03:30N 37°56' E 023°37'0 0.0
2017-Aug-23 03:00N 37°56' E 023°37'0 0.0
2017-Aug-23 02:30N 37°56' E 023°37'0 0.2
2017-Aug-23 02:01N 37°56' E 023°37'1 2.7
2017-Aug-23 01:31N 37°55' E 023°37'612.8
2017-Aug-23 01:01N 37°49' E 023°40'714.7
2017-Aug-23 00:30N 37°43' E 023°44'714.0
2017-Aug-23 00:00N 37°36' E 023°45'814.1
2017-Aug-22 23:28N 37°28' E 023°45'3614.5
2017-Aug-22 21:00N 36°54' E 023°30'24512.9 060 / 151015.0 5.4 25.023.627.0
2017-Aug-22 02:00N 37°06' E 018°24'6015.0 360 / 241015.027.0 26.0 23.0
2017-Aug-21 22:00N 37°24' E 017°12'7014.8 010 / 241015.0 5.4 27.024.328.0
2017-Aug-21 17:18N 37°48' E 015°49'413.6
2017-Aug-21 17:00N 37°49' E 015°45'713.4
2017-Aug-21 16:30N 37°53' E 015°37'713.2
2017-Aug-21 16:00N 37°58' E 015°33'714.4
2017-Aug-21 15:30N 38°05' E 015°34'714.1
2017-Aug-21 15:00N 38°12' E 015°36'611.7
2017-Aug-21 14:30N 38°17' E 015°41'714.5
2017-Aug-21 14:01N 38°24' E 015°37'814.5
2017-Aug-21 13:26N 38°31' E 015°33'714.8
2017-Aug-21 12:58N 38°37' E 015°29'814.6
2017-Aug-21 12:26N 38°44' E 015°25'814.7
2017-Aug-21 11:54N 38°51' E 015°20'18614.4
2017-Aug-20 23:00N 40°54' E 012°18'2813.8 320 / 131015.010.8 25.0 23.0
2017-Aug-20 21:00N 41°18' E 012°00'72 3.7 330 / 141015.0 5.4 25.023.626.0
2017-Aug-20 01:20N 42°02' E 010°43'5017.0
2017-Aug-19 22:25N 42°42' E 010°03'2518.4
2017-Aug-19 21:04N 43°06' E 009°57'330.4
2017-Aug-19 21:00N 43°06' E 009°54'356.6 100 / 121014.0 5.4 25.023.626.0
2017-Aug-19 20:56N 43°09' E 009°56'819.1
2017-Aug-19 20:30N 43°16' E 009°50'1019.3
2017-Aug-19 20:00N 43°25' E 009°45'1318.5
2017-Aug-19 19:17N 43°38' E 009°47'518.7
2017-Aug-19 19:00N 43°43' E 009°48'918.3
2017-Aug-19 18:30N 43°52' E 009°50'917.3
2017-Aug-19 18:00N 44°01' E 009°52'510.3
2017-Aug-19 17:30N 44°06' E 009°51'1 1.2
2017-Aug-19 17:00N 44°06' E 009°50'0 0.0
2017-Aug-19 16:30N 44°06' E 009°50'0 0.0
2017-Aug-19 16:00N 44°06' E 009°50'0 0.0
2017-Aug-19 15:30N 44°06' E 009°50'0 0.0
2017-Aug-19 15:00N 44°06' E 009°50'0 0.0
2017-Aug-19 14:00N 44°06' E 009°50'0 0.0
2017-Aug-19 13:30N 44°06' E 009°50'0 0.0
2017-Aug-19 12:57N 44°06' E 009°50'0 0.0
2017-Aug-19 12:30N 44°06' E 009°50'0 0.0
2017-Aug-19 12:00N 44°06' E 009°50'0 0.0
2017-Aug-19 11:24N 44°06' E 009°50'0 0.0
2017-Aug-19 10:57N 44°06' E 009°50'0 0.0
2017-Aug-19 10:30N 44°06' E 009°50'0 0.0
2017-Aug-19 10:00N 44°06' E 009°50'0 0.0
2017-Aug-19 09:30N 44°06' E 009°50'0 0.0
2017-Aug-19 09:00N 44°06' E 009°50'0 0.0
2017-Aug-19 08:30N 44°06' E 009°50'0 0.0
2017-Aug-19 08:00N 44°06' E 009°50'0 0.0
2017-Aug-19 07:30N 44°06' E 009°50'0 0.0
2017-Aug-19 07:00N 44°06' E 009°50'2120.3
2017-Aug-19 07:00N 44°06' E 009°48'2 3.4 030 / 51016.010.8 25.0 24.0
2017-Aug-19 06:30N 44°06' E 009°50'0 0.0
2017-Aug-19 06:00N 44°06' E 009°50'0 0.0
2017-Aug-19 05:30N 44°06' E 009°50'0 0.0
2017-Aug-19 05:00N 44°06' E 009°50'0 0.9
2017-Aug-19 04:30N 44°06' E 009°51'3 6.5
2017-Aug-19 04:00N 44°03' E 009°52'510.4
2017-Aug-19 03:30N 43°58' E 009°56'612.5
2017-Aug-19 03:00N 43°56' E 009°48'612.5
2017-Aug-19 02:30N 43°54' E 009°39'612.7
2017-Aug-19 02:00N 43°52' E 009°31'713.1
2017-Aug-19 01:30N 43°50' E 009°23'713.1
2017-Aug-19 01:00N 43°48' E 009°14'613.0
2017-Aug-19 00:30N 43°47' E 009°05'713.3
2017-Aug-19 00:00N 43°45' E 008°56'713.5
2017-Aug-18 23:30N 43°43' E 008°47'713.7
2017-Aug-18 23:00N 43°42' E 008°38'713.9
2017-Aug-18 22:30N 43°40' E 008°29'713.9
2017-Aug-18 22:00N 43°38' E 008°19'2171.8
2017-Aug-18 22:00N 43°36' E 008°18'611.8 200 / 171015.0 5.4 24.022.626.0
2017-Aug-18 21:30N 43°36' E 008°10'713.8
2017-Aug-18 21:00N 43°35' E 008°01'713.6
2017-Aug-18 20:30N 43°33' E 007°52'713.3
2017-Aug-18 20:00N 43°31' E 007°43'713.2
2017-Aug-18 19:29N 43°29' E 007°34'613.0
2017-Aug-18 19:00N 43°29' E 007°25'613.0
2017-Aug-18 18:30N 43°28' E 007°16'713.1
2017-Aug-18 18:00N 43°28' E 007°07'510.9
2017-Aug-18 17:31N 43°31' E 007°01'1 2.2
2017-Aug-18 16:58N 43°32' E 007°01'0 0.1
2017-Aug-18 16:28N 43°32' E 007°01'0 0.0
2017-Aug-18 15:58N 43°32' E 007°01'0 0.0
2017-Aug-18 15:28N 43°32' E 007°01'0 0.0
2017-Aug-18 14:58N 43°32' E 007°01'0 0.1
2017-Aug-18 14:28N 43°32' E 007°01'0 0.0
2017-Aug-18 13:28N 43°32' E 007°01'0 0.0
2017-Aug-18 12:58N 43°32' E 007°01'0 0.0
2017-Aug-18 12:28N 43°32' E 007°01'0 0.0
2017-Aug-18 11:58N 43°32' E 007°01'0 0.0
2017-Aug-18 11:19N 43°32' E 007°01'0 0.1
2017-Aug-18 10:58N 43°32' E 007°01'0 0.0
2017-Aug-18 10:22N 43°32' E 007°01'0 0.0
2017-Aug-18 09:52N 43°32' E 007°01'0 0.0
2017-Aug-18 09:13N 43°32' E 007°01'0 0.0
2017-Aug-18 08:52N 43°32' E 007°01'0 0.0
2017-Aug-18 08:22N 43°32' E 007°01'0 0.0
2017-Aug-18 07:52N 43°32' E 007°01'0 0.0
2017-Aug-18 07:22N 43°32' E 007°01'0 0.0
2017-Aug-18 06:52N 43°32' E 007°01'0 0.0
2017-Aug-18 06:31N 43°32' E 007°01'0 0.1
2017-Aug-18 06:00N 43°32' E 007°01'2 3.4
2017-Aug-18 05:30N 43°31' E 006°60'2818.2
2017-Aug-18 03:57N 43°06' E 006°40'918.6
2017-Aug-18 03:30N 42°60' E 006°33'1318.5
2017-Aug-18 02:48N 42°53' E 006°18'718.7
2017-Aug-18 02:24N 42°50' E 006°09'818.9
2017-Aug-18 02:01N 42°46' E 005°60'1019.2
2017-Aug-18 01:31N 42°41' E 005°48'1019.4
2017-Aug-18 01:00N 42°36' E 005°37'1019.4
2017-Aug-18 00:30N 42°32' E 005°25'1019.9
2017-Aug-18 00:00N 42°27' E 005°13'1019.6
2017-Aug-17 23:30N 42°22' E 005°02'1019.5
2017-Aug-17 23:00N 42°18' E 004°50'1019.3
2017-Aug-17 22:31N 42°13' E 004°39'1019.8
2017-Aug-17 22:00N 42°08' E 004°27'3337.1
2017-Aug-17 22:00N 42°06' E 004°24'1015.8 280 / 141019.0 5.4 24.022.624.0
2017-Aug-17 21:22N 42°02' E 004°12'10019.5
2017-Aug-17 16:14N 41°16' E 002°13'2 9.6
2017-Aug-17 15:59N 41°18' E 002°10'4 0.3
2017-Aug-17 03:48N 41°22' E 002°11'1 2.2
2017-Aug-17 03:30N 41°21' E 002°10'4 7.1
2017-Aug-17 03:00N 41°18' E 002°11'714.1
2017-Aug-17 02:30N 41°13' E 002°18'1217.7
2017-Aug-17 01:48N 41°07' E 002°33'619.1
2017-Aug-17 01:30N 41°04' E 002°39'1019.3
2017-Aug-17 01:00N 40°59' E 002°50'1019.3
2017-Aug-17 00:30N 40°54' E 003°01'918.8
2017-Aug-17 00:00N 40°50' E 003°12'918.5
2017-Aug-16 23:30N 40°45' E 003°23'4118.7
2017-Aug-16 21:19N 40°25' E 004°09'618.7
2017-Aug-16 21:00N 40°22' E 004°16'5303.3
2017-Aug-16 21:00N 40°18' E 004°12'1123.0 080 / 61020.0 5.4 26.024.627.0
2017-Aug-16 20:30N 40°18' E 004°27'918.6
2017-Aug-16 20:01N 40°13' E 004°37'2718.6
2017-Aug-16 18:33N 39°60' E 005°08'118.6
2017-Aug-16 18:30N 39°59' E 005°09'2118.5
2017-Aug-16 17:22N 39°49' E 005°33'3517.3
2017-Aug-16 15:22N 39°32' E 006°12'818.2
2017-Aug-16 14:55N 39°27' E 006°21'918.5
2017-Aug-16 14:27N 39°23' E 006°31'10618.4
2017-Aug-16 08:41N 38°36' E 008°33'918.8
2017-Aug-16 08:11N 38°36' E 008°45'618.5
2017-Aug-16 07:52N 38°36' E 008°52'718.5
2017-Aug-16 07:30N 38°36' E 009°01'1018.7
2017-Aug-16 06:59N 38°35' E 009°13'918.9
2017-Aug-16 06:29N 38°35' E 009°25'918.9
2017-Aug-16 06:00N 38°34' E 009°37'918.9
2017-Aug-16 05:31N 38°34' E 009°49'1118.8
2017-Aug-16 04:55N 38°33' E 010°03'919.2
2017-Aug-16 04:27N 38°33' E 010°15'919.0
2017-Aug-16 04:00N 38°32' E 010°26'3636.2
2017-Aug-16 03:00N 38°30' E 011°12'7115.0 030 / 191020.027.0 26.0 23.0
2017-Aug-15 22:18N 38°26' E 012°42'618.7
2017-Aug-15 22:00N 38°26' E 012°49'4915.6
2017-Aug-15 22:00N 38°24' E 012°54'611.4 030 / 111020.0 5.4 27.025.628.0
2017-Aug-15 21:30N 38°25' E 013°01'918.7
2017-Aug-15 21:00N 38°25' E 013°13'918.7
2017-Aug-15 20:30N 38°24' E 013°25'918.7
2017-Aug-15 20:00N 38°23' E 013°36'918.6
2017-Aug-15 19:30N 38°23' E 013°48'1618.6
2017-Aug-15 18:39N 38°22' E 014°09'318.8
2017-Aug-15 18:30N 38°22' E 014°12'1018.7
2017-Aug-15 17:58N 38°21' E 014°25'918.7
2017-Aug-15 17:30N 38°20' E 014°36'918.3
2017-Aug-15 17:00N 38°20' E 014°48'918.4
2017-Aug-15 16:30N 38°19' E 014°59'918.7
2017-Aug-15 16:01N 38°20' E 015°11'918.3
2017-Aug-15 15:31N 38°20' E 015°23'918.2
2017-Aug-15 15:00N 38°20' E 015°34'714.6
2017-Aug-15 14:30N 38°16' E 015°42'613.0
2017-Aug-15 14:00N 38°12' E 015°37'816.0
2017-Aug-15 13:31N 38°04' E 015°36'917.1
2017-Aug-15 13:00N 37°56' E 015°40'1219.7
2017-Aug-15 12:25N 37°51' E 015°54'22917.1
2017-Aug-14 23:00N 41°06' E 018°30'4221.0 330 / 191019.010.8 26.0 23.0
2017-Aug-14 21:00N 41°48' E 018°30'   320 / 151019.0 5.4 26.024.627.0

Dump ship's entire track history